Main page
METAR-TAF:

METAR-TAF

Airports :

Birmingham, England

Birmingham Airport

latitude: 52-27N, longitude: 001-44W, elevation: 99 m

Current weather observation

The report was made 23 minutes ago, at 08:50 UTC
Wind 9 kt from the East/Northeast, varying between North and East/Southeast
Temperature 8°C
Humidity 76%
Pressure 1026 hPa
Visibility 10 km or more
no clouds below 1500 m and no cumulonimbus

METAR: EGBB 260850Z 06009KT 360V110 CAVOK 08/04 Q1026

Time: 10:13 (09:13 UTC)

Forecast

The report was made 4 hours and 19 minutes ago, at 04:54 UTC
Forecast valid from 26 at 06 UTC to 27 at 06 UTC
Wind 9 kt from the East/Northeast
Visibility 10 km or more
Few clouds at a height of 4000 ft
Temporary
from 27 at 04 UTC to 27 at 06 UTC
Broken clouds at a height of 1400 ft
Probability 40% :
Temporary
from 27 at 04 UTC to 27 at 06 UTC
Visibility: 8000 m
Broken clouds at a height of 600 ft

TAF: EGBB 260454Z 2606/2706 06009KT 9999 FEW040 TEMPO 2704/2706 BKN014 PROB40 TEMPO 2704/2706 8000 BKN006

Weather observations and forecasts of more than 4000 airports (METAR and TAF reports).

The available stations are represented by yellow and red dots on the map.

Hover mouse over dot to see the name of the station.

Then click to see weather observations and forecasts.

To change the map : click on the green buttons with a black cross to zoom in, on the green button with a dash to zoom out, or on the green arrows for adjacent maps.


METAR-TAF: